Time;durP1;ratioP1;P1;durP2;ratioP2;P2;SDS_P1;SDS_P2;PMS_P1;PMS_P2;Temp;Humidity;BMP_temperature;BMP_pressure;BME280_temperature;BME280_humidity;BME280_pressure;Samples;Min_cycle;Max_cycle;Signal;HPM_P1;HPM_P2
2024/02/20 00:01:16;;;;;;;7.90;3.80;;;;;;;4.94;77.82;99395.37;105359;1261;107599;-82
2024/02/20 00:03:44;;;;;;;8.10;4.30;;;;;;;4.95;77.83;99392.51;105431;1258;96171;-82
2024/02/20 00:06:12;;;;;;;8.10;4.70;;;;;;;4.95;77.88;99393.20;105150;1259;95246;-81
2024/02/20 00:08:40;;;;;;;7.80;4.20;;;;;;;4.94;77.91;99390.95;105470;1258;107582;-78
2024/02/20 00:11:08;;;;;;;9.00;4.90;;;;;;;4.94;77.90;99391.15;105076;1261;95546;-82
2024/02/20 00:13:36;;;;;;;10.00;3.70;;;;;;;4.95;78.02;99394.79;105479;1260;107457;-82
2024/02/20 00:16:06;;;;;;;5.90;3.70;;;;;;;4.94;78.04;99398.16;105502;1259;95246;-80
2024/02/20 00:18:34;;;;;;;5.70;3.30;;;;;;;4.95;78.02;99402.89;105535;1261;95248;-80
2024/02/20 00:21:02;;;;;;;7.40;4.00;;;;;;;4.96;78.06;99402.33;105577;1261;108621;-82
2024/02/20 00:23:30;;;;;;;6.80;3.80;;;;;;;4.97;78.10;99403.52;105360;1258;96018;-81
2024/02/20 00:25:59;;;;;;;5.60;3.60;;;;;;;4.98;78.07;99402.74;105255;1270;108250;-81
2024/02/20 00:28:26;;;;;;;5.50;3.30;;;;;;;4.99;78.20;99406.75;105312;1259;95456;-82
2024/02/20 00:30:55;;;;;;;8.10;4.10;;;;;;;5.00;78.21;99407.77;105358;1256;95305;-82
2024/02/20 00:33:23;;;;;;;7.00;3.40;;;;;;;5.00;78.22;99405.84;105074;1258;108367;-80
2024/02/20 00:35:50;;;;;;;6.90;3.20;;;;;;;5.00;78.16;99407.92;105221;1258;95501;-81
2024/02/20 00:38:18;;;;;;;9.90;4.20;;;;;;;5.02;78.24;99411.02;105155;1258;108369;-82
2024/02/20 00:40:46;;;;;;;7.80;3.00;;;;;;;5.02;78.22;99410.80;105323;1258;96608;-80
2024/02/20 00:43:15;;;;;;;10.20;4.30;;;;;;;5.03;78.21;99404.30;105400;1258;96614;-82
2024/02/20 00:45:44;;;;;;;6.70;3.10;;;;;;;5.03;78.18;99404.61;105357;1258;109614;-81
2024/02/20 00:48:15;;;;;;;4.70;2.70;;;;;;;5.04;78.18;99402.65;105602;1254;96556;-82
2024/02/20 00:50:43;;;;;;;5.50;3.20;;;;;;;5.04;78.24;99400.17;105407;1258;106506;-82
2024/02/20 00:53:11;;;;;;;5.70;3.10;;;;;;;5.05;78.18;99402.42;105290;1256;97922;-81
2024/02/20 00:55:39;;;;;;;6.20;4.20;;;;;;;5.06;78.24;99402.73;105528;1258;98088;-82
2024/02/20 00:58:08;;;;;;;5.30;3.20;;;;;;;5.07;78.32;99400.60;105346;1257;110513;-82
2024/02/20 01:00:36;;;;;;;8.80;3.70;;;;;;;5.08;78.46;99400.03;105631;1254;97823;-79
2024/02/20 01:03:04;;;;;;;6.10;3.90;;;;;;;5.09;78.43;99398.25;105469;1258;107726;-82
2024/02/20 01:05:32;;;;;;;6.90;4.00;;;;;;;5.10;78.39;99400.64;105291;1258;96620;-80
2024/02/20 01:08:00;;;;;;;6.20;3.40;;;;;;;5.11;78.43;99398.14;105409;1255;96583;-82
2024/02/20 01:10:28;;;;;;;6.40;3.60;;;;;;;5.12;78.46;99396.83;105414;1257;110782;-81
2024/02/20 01:12:56;;;;;;;5.10;2.90;;;;;;;5.13;78.42;99393.98;105465;1257;96595;-82
2024/02/20 01:15:24;;;;;;;5.80;3.40;;;;;;;5.14;78.56;99393.44;105346;1254;107091;-81
2024/02/20 01:17:52;;;;;;;5.60;3.30;;;;;;;5.14;78.41;99393.61;104996;1258;96522;-81
2024/02/20 01:20:21;;;;;;;5.90;2.90;;;;;;;5.14;78.60;99391.50;105504;1254;96663;-77
2024/02/20 01:22:49;;;;;;;6.60;3.60;;;;;;;5.16;78.49;99392.10;105174;1258;109923;-81
2024/02/20 01:25:18;;;;;;;5.70;3.70;;;;;;;5.16;78.52;99391.20;105087;1258;96597;-80
2024/02/20 01:27:46;;;;;;;6.10;3.70;;;;;;;5.17;78.47;99389.05;105545;1256;107853;-79
2024/02/20 01:30:14;;;;;;;6.60;3.80;;;;;;;5.19;78.38;99390.73;105103;1260;97921;-82
2024/02/20 01:32:42;;;;;;;8.10;4.10;;;;;;;5.19;78.54;99388.81;105301;1261;97425;-78
2024/02/20 01:35:10;;;;;;;9.20;4.50;;;;;;;5.19;78.43;99386.67;105168;1266;109728;-81
2024/02/20 01:37:38;;;;;;;6.60;3.70;;;;;;;5.20;78.43;99383.29;105265;1268;96500;-80
2024/02/20 01:40:08;;;;;;;5.90;4.20;;;;;;;5.20;78.40;99386.98;105088;1261;107125;-81
2024/02/20 01:42:38;;;;;;;7.90;3.90;;;;;;;5.21;78.54;99386.60;105188;1261;96594;-82
2024/02/20 01:45:08;;;;;;;7.00;4.00;;;;;;;5.21;78.54;99387.98;105170;1257;96641;-82
2024/02/20 01:47:36;;;;;;;6.20;4.20;;;;;;;5.23;78.48;99380.56;105189;1253;109861;-82
2024/02/20 01:50:06;;;;;;;7.50;4.00;;;;;;;5.23;78.45;99380.55;105368;1253;96602;-82
2024/02/20 01:52:34;;;;;;;6.00;3.80;;;;;;;5.24;78.46;99380.87;105399;1259;107642;-82
2024/02/20 01:55:02;;;;;;;5.60;3.60;;;;;;;5.24;78.58;99382.93;105491;1258;96724;-78
2024/02/20 01:57:31;;;;;;;6.20;3.60;;;;;;;5.24;78.46;99377.16;105328;1256;97956;-79
2024/02/20 01:59:59;;;;;;;6.30;4.20;;;;;;;5.24;78.48;99377.86;105316;1259;109854;-82
2024/02/20 02:02:27;;;;;;;5.90;3.50;;;;;;;5.25;78.54;99375.91;105297;1256;97205;-81
2024/02/20 02:04:55;;;;;;;6.00;3.30;;;;;;;5.25;78.44;99373.95;105025;1269;107615;-82
2024/02/20 02:07:23;;;;;;;5.10;3.10;;;;;;;5.26;78.44;99373.21;105675;1254;96694;-81
2024/02/20 02:09:51;;;;;;;6.10;3.60;;;;;;;5.27;78.52;99373.17;105606;1254;96522;-80
2024/02/20 02:12:19;;;;;;;5.40;3.40;;;;;;;5.28;78.49;99370.13;105412;1259;109999;-82
2024/02/20 02:14:47;;;;;;;5.40;3.50;;;;;;;5.29;78.36;99369.89;105415;1274;96649;-81
2024/02/20 02:17:15;;;;;;;7.40;3.80;;;;;;;5.30;78.52;99370.52;105441;1260;107679;-82
2024/02/20 02:19:43;;;;;;;7.00;3.50;;;;;;;5.30;78.52;99376.69;105198;1261;96629;-80
2024/02/20 02:22:11;;;;;;;7.60;4.30;;;;;;;5.30;78.51;99376.70;105310;1258;97535;-80
2024/02/20 02:24:39;;;;;;;7.20;3.40;;;;;;;5.30;78.53;99377.57;105219;1261;109539;-80
2024/02/20 02:27:07;;;;;;;7.30;3.90;;;;;;;5.31;78.46;99376.64;105466;1256;97915;-82
2024/02/20 02:29:35;;;;;;;7.40;3.90;;;;;;;5.32;78.39;99375.21;105480;1277;106277;-80
2024/02/20 02:32:03;;;;;;;7.40;3.60;;;;;;;5.31;78.28;99376.64;105251;1256;96860;-81
2024/02/20 02:34:31;;;;;;;5.30;3.40;;;;;;;5.33;78.44;99377.98;105121;1259;98034;-81
2024/02/20 02:36:59;;;;;;;7.10;3.60;;;;;;;5.33;78.44;99378.16;105492;1260;108504;-82
2024/02/20 02:39:27;;;;;;;4.50;3.00;;;;;;;5.32;78.34;99382.92;105315;1258;96764;-80
2024/02/20 02:41:55;;;;;;;6.70;3.20;;;;;;;5.32;78.48;99380.65;104894;1259;107619;-79
2024/02/20 02:44:23;;;;;;;6.70;3.70;;;;;;;5.32;78.38;99383.63;105174;1261;96730;-76
2024/02/20 02:46:51;;;;;;;6.40;3.30;;;;;;;5.31;78.45;99381.23;105362;1259;96615;-80
2024/02/20 02:49:20;;;;;;;7.00;3.60;;;;;;;5.30;78.40;99381.61;105461;1257;109359;-80
2024/02/20 02:51:50;;;;;;;7.90;4.00;;;;;;;5.29;78.45;99375.70;105189;1258;96603;-81
2024/02/20 02:54:18;;;;;;;7.10;4.40;;;;;;;5.29;78.52;99378.52;104953;1259;107808;-82
2024/02/20 02:56:46;;;;;;;6.50;3.90;;;;;;;5.27;78.42;99376.15;105000;1259;96750;-81
2024/02/20 02:59:13;;;;;;;7.10;4.10;;;;;;;5.26;78.40;99375.85;105219;1259;96681;-82
2024/02/20 03:01:41;;;;;;;6.60;4.30;;;;;;;5.24;78.47;99386.13;105113;1256;109433;-80
2024/02/20 03:04:09;;;;;;;8.10;4.70;;;;;;;5.24;78.44;99387.38;105437;1256;96708;-80
2024/02/20 03:06:40;;;;;;;7.90;4.40;;;;;;;5.25;78.54;99391.40;105366;1267;107718;-81
2024/02/20 03:09:12;;;;;;;7.50;4.60;;;;;;;5.25;78.64;99389.61;105401;1260;96538;-84
2024/02/20 03:11:42;;;;;;;8.70;5.20;;;;;;;5.25;78.61;99385.19;105501;1258;97540;-82
2024/02/20 03:14:12;;;;;;;7.90;4.50;;;;;;;5.25;78.60;99378.88;105189;1260;109902;-83
2024/02/20 03:16:40;;;;;;;9.10;5.20;;;;;;;5.25;78.51;99377.30;105463;1255;96605;-80
2024/02/20 03:19:08;;;;;;;8.40;4.60;;;;;;;5.24;78.47;99370.98;104940;1256;107507;-81
2024/02/20 03:21:36;;;;;;;10.80;5.70;;;;;;;5.23;78.38;99369.98;105242;1261;96605;-81
2024/02/20 03:24:04;;;;;;;10.10;5.70;;;;;;;5.21;78.42;99370.94;105195;1259;96605;-82
2024/02/20 03:26:33;;;;;;;8.60;5.00;;;;;;;5.19;78.44;99368.05;104986;1262;109893;-80
2024/02/20 03:29:01;;;;;;;9.10;5.30;;;;;;;5.17;78.39;99368.13;105238;1259;96601;-78
2024/02/20 03:31:29;;;;;;;8.40;5.00;;;;;;;5.16;78.46;99368.17;105314;1258;107363;-82
2024/02/20 03:33:58;;;;;;;8.70;5.30;;;;;;;5.16;78.37;99364.52;105559;1259;96715;-79
2024/02/20 03:36:26;;;;;;;8.70;4.90;;;;;;;5.15;78.39;99369.29;105231;1255;97655;-82
2024/02/20 03:38:54;;;;;;;7.90;4.90;;;;;;;5.16;78.48;99371.90;105505;1258;109608;-81
2024/02/20 03:41:22;;;;;;;7.80;4.90;;;;;;;5.16;78.46;99373.09;105551;1267;96626;-80
2024/02/20 03:43:49;;;;;;;6.90;4.90;;;;;;;5.18;78.58;99379.34;105456;1260;107126;-81
2024/02/20 03:46:17;;;;;;;8.20;4.30;;;;;;;5.20;78.47;99382.77;105327;1259;96601;-79
2024/02/20 03:48:45;;;;;;;9.00;4.90;;;;;;;5.21;78.48;99382.23;105309;1258;96969;-81
2024/02/20 03:51:13;;;;;;;7.80;4.50;;;;;;;5.23;78.59;99391.80;105464;1258;110509;-81
2024/02/20 03:53:41;;;;;;;9.90;5.10;;;;;;;5.25;78.47;99393.32;105327;1258;96949;-80
2024/02/20 03:56:13;;;;;;;6.60;4.00;;;;;;;5.25;78.53;99391.88;105534;1261;107637;-77
2024/02/20 03:58:41;;;;;;;8.20;5.20;;;;;;;5.26;78.54;99389.35;105153;1267;96676;-81
2024/02/20 04:01:09;;;;;;;9.00;4.80;;;;;;;5.28;78.62;99389.97;105261;1259;97922;-77
2024/02/20 04:03:37;;;;;;;9.80;5.00;;;;;;;5.29;78.54;99385.54;105566;1257;109802;-81
2024/02/20 04:06:08;;;;;;;7.70;4.70;;;;;;;5.30;78.55;99382.48;105443;1260;96578;-82
2024/02/20 04:08:37;;;;;;;7.90;4.40;;;;;;;5.32;78.44;99378.17;105279;1260;107614;-80
2024/02/20 04:11:06;;;;;;;8.70;5.80;;;;;;;5.33;78.54;99382.52;105387;1262;96616;-81
2024/02/20 04:13:34;;;;;;;9.60;5.50;;;;;;;5.34;78.61;99381.41;105452;1258;96580;-78
2024/02/20 04:16:02;;;;;;;9.10;5.50;;;;;;;5.36;78.64;99380.45;105485;1258;112320;-77
2024/02/20 04:18:30;;;;;;;9.80;5.40;;;;;;;5.38;78.55;99380.36;105543;1259;97084;-77
2024/02/20 04:20:58;;;;;;;9.40;5.40;;;;;;;5.39;78.61;99380.13;105471;1254;107184;-77
2024/02/20 04:23:26;;;;;;;9.70;5.60;;;;;;;5.41;78.53;99380.06;105243;1259;96716;-76
2024/02/20 04:25:54;;;;;;;9.20;4.60;;;;;;;5.42;78.44;99380.56;105513;1258;96632;-79
2024/02/20 04:28:22;;;;;;;10.10;5.20;;;;;;;5.43;78.49;99383.17;105634;1257;109600;-81
2024/02/20 04:30:50;;;;;;;13.90;5.70;;;;;;;5.43;78.60;99382.43;104974;1265;96700;-76
2024/02/20 04:33:17;;;;;;;8.70;5.40;;;;;;;5.44;78.44;99388.38;104931;1262;107678;-76
2024/02/20 04:35:48;;;;;;;9.10;5.80;;;;;;;5.45;78.57;99390.41;105054;1261;97457;-75
2024/02/20 04:38:16;;;;;;;10.00;5.80;;;;;;;5.46;78.60;99390.55;105229;1260;96903;-76
2024/02/20 04:40:44;;;;;;;10.30;6.10;;;;;;;5.48;78.45;99389.44;105603;1259;109382;-80
2024/02/20 04:43:11;;;;;;;9.90;5.70;;;;;;;5.49;78.50;99388.84;105515;1260;97196;-82
2024/02/20 04:45:40;;;;;;;11.60;6.90;;;;;;;5.50;78.62;99388.60;105288;1259;107735;-83
2024/02/20 04:48:07;;;;;;;11.80;6.80;;;;;;;5.51;78.70;99388.21;105441;1261;97922;-81
2024/02/20 04:50:36;;;;;;;13.40;7.50;;;;;;;5.52;78.64;99385.00;105739;1260;96575;-75
2024/02/20 04:53:04;;;;;;;12.80;7.20;;;;;;;5.53;78.56;99386.38;105511;1260;110420;-81
2024/02/20 04:55:32;;;;;;;13.50;7.40;;;;;;;5.53;78.56;99386.73;105442;1269;96593;-81
2024/02/20 04:58:00;;;;;;;14.70;7.70;;;;;;;5.53;78.53;99384.45;105151;1269;107695;-83
2024/02/20 05:00:28;;;;;;;14.10;7.50;;;;;;;5.53;78.55;99385.70;105388;1261;97202;-83
2024/02/20 05:02:56;;;;;;;13.60;8.30;;;;;;;5.51;78.62;99384.52;105138;1260;96710;-78
2024/02/20 05:05:24;;;;;;;12.50;7.20;;;;;;;5.49;78.66;99384.42;105567;1259;109851;-85
2024/02/20 05:07:51;;;;;;;9.80;6.40;;;;;;;5.50;78.48;99386.52;105744;1257;96588;-81
2024/02/20 05:10:19;;;;;;;11.90;7.10;;;;;;;5.49;78.55;99385.33;105415;1262;108397;-78
2024/02/20 05:12:47;;;;;;;10.40;6.00;;;;;;;5.50;78.61;99385.99;105453;1260;96610;-81
2024/02/20 05:15:15;;;;;;;8.80;5.90;;;;;;;5.51;78.61;99387.17;105423;1257;96598;-81
2024/02/20 05:17:43;;;;;;;9.30;5.70;;;;;;;5.51;78.52;99385.92;105215;1269;110074;-80
2024/02/20 05:20:11;;;;;;;10.10;6.00;;;;;;;5.50;78.51;99388.61;105388;1271;98043;-82
2024/02/20 05:22:39;;;;;;;11.90;5.30;;;;;;;5.50;78.58;99387.41;105120;1262;107700;-81
2024/02/20 05:25:07;;;;;;;10.20;5.20;;;;;;;5.50;78.53;99388.27;105365;1267;96687;-83
2024/02/20 05:27:37;;;;;;;7.20;4.50;;;;;;;5.51;78.71;99389.45;105297;1259;96714;-77
2024/02/20 05:30:13;;;;;;;8.30;4.60;;;;;;;5.53;78.62;99395.70;105080;1260;109910;-80
2024/02/20 05:32:45;;;;;;;8.50;4.50;;;;;;;5.55;78.66;99396.66;105237;1262;96521;-78
2024/02/20 05:35:15;;;;;;;6.70;3.70;;;;;;;5.56;78.56;99397.87;105358;1261;105832;-77
2024/02/20 05:37:43;;;;;;;7.90;4.00;;;;;;;5.56;78.66;99397.67;105273;1260;96591;-77
2024/02/20 05:40:14;;;;;;;6.50;3.70;;;;;;;5.56;78.65;99400.34;105429;1260;96602;-76
2024/02/20 05:42:44;;;;;;;4.90;3.20;;;;;;;5.55;78.82;99402.33;105517;1260;109946;-77
2024/02/20 05:45:12;;;;;;;6.90;3.20;;;;;;;5.54;78.68;99397.06;105175;1269;97473;-78
2024/02/20 05:47:46;;;;;;;6.80;3.10;;;;;;;5.52;78.56;99399.45;105364;1269;106811;-77
2024/02/20 05:50:15;;;;;;;4.70;2.90;;;;;;;5.49;78.65;99399.93;105160;1271;96595;-77
2024/02/20 05:52:47;;;;;;;4.60;2.80;;;;;;;5.49;78.65;99400.83;105234;1260;97282;-78
2024/02/20 05:55:18;;;;;;;5.30;3.10;;;;;;;5.48;78.63;99402.60;105352;1260;109878;-81
2024/02/20 05:57:46;;;;;;;6.90;3.20;;;;;;;5.48;78.73;99404.20;105141;1260;96639;-77
2024/02/20 06:00:23;;;;;;;6.80;2.90;;;;;;;5.49;78.71;99406.42;105255;1257;107750;-77
2024/02/20 06:02:51;;;;;;;5.70;2.90;;;;;;;5.51;78.78;99408.29;105375;1260;96777;-77
2024/02/20 06:05:24;;;;;;;5.60;3.10;;;;;;;5.51;78.76;99409.30;105577;1257;97542;-78
2024/02/20 06:07:59;;;;;;;4.20;2.40;;;;;;;5.51;78.73;99406.89;105388;1258;109611;-79
2024/02/20 06:10:27;;;;;;;5.00;3.00;;;;;;;5.51;78.74;99406.31;105397;1264;97010;-75
2024/02/20 06:12:55;;;;;;;6.10;3.60;;;;;;;5.53;78.74;99409.95;107779;1259;108404;-75
2024/02/20 06:15:24;;;;;;;6.70;3.80;;;;;;;5.53;78.72;99417.52;105539;1269;96692;-76
2024/02/20 06:17:56;;;;;;;;;;;;;;;5.53;78.80;99425.08;105395;1258;96541;-76
2024/02/20 06:20:24;;;;;;;6.80;3.90;;;;;;;5.51;78.81;99427.81;105252;1261;109677;-75
2024/02/20 06:22:52;;;;;;;5.20;3.40;;;;;;;5.52;78.78;99433.92;104963;1269;97956;-75
2024/02/20 06:25:27;;;;;;;8.60;4.40;;;;;;;5.52;78.76;99439.55;104957;1262;108110;-76
2024/02/20 06:27:55;;;;;;;7.40;4.00;;;;;;;5.51;78.74;99437.67;105074;1260;96686;-77
2024/02/20 06:30:23;;;;;;;8.50;4.40;;;;;;;5.49;78.78;99439.15;105111;1261;97644;-77
2024/02/20 06:32:53;;;;;;;13.70;6.70;;;;;;;5.48;78.77;99447.28;105407;1260;109577;-75
2024/02/20 06:35:21;;;;;;;21.70;10.00;;;;;;;5.47;78.84;99446.64;108584;1255;95531;-76
2024/02/20 06:37:50;;;;;;;13.70;6.00;;;;;;;5.46;78.77;99449.34;108601;1256;107228;-76
2024/02/20 06:40:19;;;;;;;9.00;5.60;;;;;;;5.47;78.90;99446.13;108509;1256;94556;-75
2024/02/20 06:42:47;;;;;;;7.30;4.50;;;;;;;5.48;78.84;99443.42;108552;1255;94203;-76
2024/02/20 06:45:15;;;;;;;7.70;4.60;;;;;;;5.49;78.85;99446.02;108447;1257;109712;-76
2024/02/20 06:47:43;;;;;;;6.00;3.80;;;;;;;5.50;78.92;99440.70;108556;1257;95758;-76
2024/02/20 06:50:14;;;;;;;8.10;3.90;;;;;;;5.52;79.00;99439.54;108544;1257;107108;-75
2024/02/20 06:52:44;;;;;;;9.20;4.50;;;;;;;5.55;78.93;99444.16;108537;1257;94278;-76
2024/02/20 06:55:14;;;;;;;8.70;5.00;;;;;;;5.56;79.00;99447.98;108586;1255;94249;-76
2024/02/20 06:57:43;;;;;;;10.40;5.40;;;;;;;5.58;78.99;99447.17;108606;1257;109938;-75
2024/02/20 07:00:14;;;;;;;18.10;7.80;;;;;;;5.61;78.95;99452.50;108522;1256;94690;-76
2024/02/20 07:02:43;;;;;;;10.50;6.10;;;;;;;5.62;78.91;99447.15;108541;1255;108645;-76
2024/02/20 07:05:12;;;;;;;9.50;5.50;;;;;;;5.63;78.94;99452.23;108568;1257;94279;-75
2024/02/20 07:07:45;;;;;;;9.40;5.00;;;;;;;5.63;79.02;99457.32;108574;1256;94511;-75
2024/02/20 07:10:13;;;;;;;7.70;4.70;;;;;;;5.65;79.02;99460.42;108602;1257;110200;-75
2024/02/20 07:12:41;;;;;;;7.40;4.40;;;;;;;5.66;79.09;99462.27;108553;1257;95516;-79
2024/02/20 07:15:09;;;;;;;9.30;6.30;;;;;;;5.69;78.93;99464.14;108573;1255;108271;-76
2024/02/20 07:17:37;;;;;;;12.00;6.10;;;;;;;5.70;79.16;99465.85;108477;1257;94378;-75
2024/02/20 07:20:06;;;;;;;10.50;5.50;;;;;;;5.72;79.13;99464.67;108567;1255;94222;-75
2024/02/20 07:22:34;;;;;;;14.60;8.10;;;;;;;5.73;79.00;99466.73;108505;1255;111327;-75
2024/02/20 07:25:02;;;;;;;13.30;6.70;;;;;;;5.74;79.12;99469.69;108562;1257;95516;-76
2024/02/20 07:27:30;;;;;;;15.40;7.60;;;;;;;5.76;79.24;99464.99;108613;1256;107642;-76
2024/02/20 07:29:58;;;;;;;17.00;8.30;;;;;;;5.80;79.22;99469.27;108546;1257;94514;-75
2024/02/20 07:32:32;;;;;;;13.50;7.00;;;;;;;5.84;79.04;99467.30;108606;1255;94219;-75
2024/02/20 07:35:00;;;;;;;14.70;7.10;;;;;;;5.88;79.22;99468.17;108599;1256;108823;-76
2024/02/20 07:37:28;;;;;;;13.50;7.00;;;;;;;5.93;79.31;99467.05;108491;1256;94263;-76
2024/02/20 07:40:07;;;;;;;12.60;6.10;;;;;;;5.97;79.17;99466.84;108514;1254;107269;-75
2024/02/20 07:42:36;;;;;;;7.70;5.00;;;;;;;6.02;79.29;99464.89;108562;1256;94225;-76
2024/02/20 07:45:04;;;;;;;12.40;5.70;;;;;;;6.07;79.33;99461.83;108560;1255;94281;-76
2024/02/20 07:47:32;;;;;;;10.50;5.50;;;;;;;6.15;79.46;99463.77;108553;1255;108986;-76
2024/02/20 07:50:03;;;;;;;9.30;4.90;;;;;;;6.22;79.28;99462.54;108564;1257;94930;-76
2024/02/20 07:52:34;;;;;;;12.50;6.00;;;;;;;6.29;79.53;99466.80;108516;1257;107296;-76
2024/02/20 07:55:02;;;;;;;13.10;5.80;;;;;;;6.35;79.45;99466.11;108560;1255;94748;-76
2024/02/20 07:57:34;;;;;;;12.60;5.90;;;;;;;6.42;79.54;99466.52;108544;1256;94710;-75
2024/02/20 08:00:11;;;;;;;10.30;5.20;;;;;;;6.48;79.65;99471.86;108440;1255;107754;-76
2024/02/20 08:02:39;;;;;;;7.30;4.60;;;;;;;6.53;79.44;99465.25;108403;1257;95779;-76
2024/02/20 08:05:11;;;;;;;10.50;5.20;;;;;;;6.59;79.62;99459.14;108414;1256;107733;-76
2024/02/20 08:07:41;;;;;;;7.70;4.60;;;;;;;6.64;79.62;99458.04;108563;1255;95077;-76
2024/02/20 08:10:11;;;;;;;10.30;6.10;;;;;;;6.68;79.52;99456.95;108588;1256;94666;-76
2024/02/20 08:12:41;;;;;;;11.10;5.90;;;;;;;6.72;79.72;99453.06;108523;1256;109950;-76
2024/02/20 08:15:09;;;;;;;13.60;8.00;;;;;;;6.76;79.97;99451.45;108578;1255;95122;-76
2024/02/20 08:17:38;;;;;;;10.80;6.30;;;;;;;6.81;79.68;99444.49;108411;1256;106365;-76
2024/02/20 08:20:07;;;;;;;7.70;5.10;;;;;;;6.85;79.68;99447.13;108375;1256;94654;-78
2024/02/20 08:22:34;;;;;;;7.50;5.00;;;;;;;6.86;79.77;99446.36;108526;1256;94270;-76
2024/02/20 08:25:03;;;;;;;11.10;7.60;;;;;;;6.85;79.68;99446.90;108564;1255;111047;-75
2024/02/20 08:27:31;;;;;;;9.90;5.50;;;;;;;6.85;79.62;99450.08;108562;1255;96012;-75
2024/02/20 08:30:09;;;;;;;7.70;5.80;;;;;;;6.89;79.84;99452.36;108568;1255;107250;-79
2024/02/20 08:32:43;;;;;;;8.60;5.50;;;;;;;6.95;79.97;99453.98;108386;1256;94692;-75
2024/02/20 08:35:11;;;;;;;6.80;4.50;;;;;;;7.02;79.69;99451.20;108600;1256;94359;-75
2024/02/20 08:37:43;;;;;;;9.10;5.20;;;;;;;7.09;79.94;99453.45;108391;1256;109587;-76
2024/02/20 08:40:13;;;;;;;8.40;4.60;;;;;;;7.18;79.81;99452.12;108612;1254;95731;-76
2024/02/20 08:42:44;;;;;;;7.30;5.00;;;;;;;7.27;79.95;99452.52;108447;1254;107562;-77
2024/02/20 08:45:13;;;;;;;9.50;4.70;;;;;;;7.36;79.93;99449.59;107204;1254;1698602;-75
2024/02/20 08:47:43;;;;;;;10.70;5.90;;;;;;;7.41;79.84;99448.25;108669;1253;94252;-75
2024/02/20 08:50:16;;;;;;;10.20;5.40;;;;;;;7.44;79.69;99447.77;108627;1254;109389;-76
2024/02/20 08:52:45;;;;;;;10.10;5.80;;;;;;;7.49;79.66;99444.15;108618;1254;95527;-75
2024/02/20 08:55:13;;;;;;;9.70;5.90;;;;;;;7.55;79.83;99440.11;108511;1255;109698;-78
2024/02/20 08:57:42;;;;;;;12.00;6.30;;;;;;;7.63;79.81;99445.48;108606;1254;94245;-77
2024/02/20 09:00:15;;;;;;;11.80;5.70;;;;;;;7.74;80.03;99446.67;108653;1254;94534;-76
2024/02/20 09:02:45;;;;;;;9.90;5.40;;;;;;;7.82;79.72;99441.98;108402;1253;109714;-75
2024/02/20 09:05:13;;;;;;;9.00;4.70;;;;;;;7.86;79.56;99440.37;108578;1254;95541;-76
2024/02/20 09:07:43;;;;;;;9.50;5.00;;;;;;;7.90;79.64;99439.27;108415;1256;108788;-79
2024/02/20 09:10:11;;;;;;;8.10;4.70;;;;;;;7.95;79.62;99439.34;108598;1253;94866;-75
2024/02/20 09:12:42;;;;;;;9.00;5.50;;;;;;;8.03;79.75;99441.52;108623;1254;94249;-75
2024/02/20 09:15:09;;;;;;;9.50;5.10;;;;;;;8.11;79.62;99443.23;108459;1255;109934;-75
2024/02/20 09:17:38;;;;;;;8.40;5.10;;;;;;;8.15;79.42;99444.39;108678;1253;95250;-76
2024/02/20 09:20:09;;;;;;;6.90;3.90;;;;;;;8.16;79.11;99443.47;108593;1253;107077;-76
2024/02/20 09:22:38;;;;;;;8.20;4.60;;;;;;;8.19;79.17;99445.22;108370;1256;94574;-75
2024/02/20 09:25:08;;;;;;;8.90;5.40;;;;;;;8.25;79.19;99444.73;108663;1254;94198;-75
2024/02/20 09:27:37;;;;;;;8.70;4.90;;;;;;;8.28;79.28;99448.59;108587;1255;109632;-76
2024/02/20 09:30:05;;;;;;;8.50;5.00;;;;;;;8.31;79.07;99453.57;108599;1255;94489;-76
2024/02/20 09:32:33;;;;;;;8.80;5.60;;;;;;;8.32;78.91;99455.98;108369;1256;108381;-75
2024/02/20 09:35:01;;;;;;;10.20;5.80;;;;;;;8.31;78.90;99460.44;108532;1254;94589;-76
2024/02/20 09:37:31;;;;;;;7.40;4.70;;;;;;;8.29;78.58;99458.96;108645;1254;94342;-76
2024/02/20 09:39:59;;;;;;;7.30;4.70;;;;;;;8.27;78.26;99458.91;108551;1255;109412;-76
2024/02/20 09:42:38;;;;;;;9.80;4.20;;;;;;;8.29;78.43;99458.80;108576;1255;95390;-75
2024/02/20 09:45:17;;;;;;;16.70;7.10;;;;;;;8.32;78.39;99461.27;108379;1255;107278;-76
2024/02/20 09:47:49;;;;;;;13.30;7.10;;;;;;;8.35;78.30;99464.46;108362;1256;94287;-75
2024/02/20 09:50:25;;;;;;;8.50;4.90;;;;;;;8.39;78.19;99467.80;108526;1254;94526;-75
2024/02/20 09:52:54;;;;;;;6.70;4.10;;;;;;;8.42;78.18;99464.98;108569;1255;109794;-75
2024/02/20 09:55:26;;;;;;;5.90;3.60;;;;;;;8.43;78.04;99465.29;108500;1255;94269;-77
2024/02/20 09:57:57;;;;;;;5.60;4.10;;;;;;;8.42;77.79;99468.14;108559;1255;107630;-76
2024/02/20 10:00:28;;;;;;;5.70;3.30;;;;;;;8.39;77.47;99471.13;108546;1255;94355;-76
2024/02/20 10:03:03;;;;;;;4.90;3.60;;;;;;;8.38;77.43;99471.04;108599;1255;94272;-76
2024/02/20 10:05:42;;;;;;;3.90;2.90;;;;;;;8.35;77.34;99464.09;108545;1255;109961;-75
2024/02/20 10:08:10;;;;;;;7.60;3.80;;;;;;;8.37;77.21;99467.04;108584;1255;95524;-76
2024/02/20 10:10:39;;;;;;;5.60;3.60;;;;;;;8.38;77.12;99461.30;108426;1253;108117;-75
2024/02/20 10:13:09;;;;;;;6.80;4.30;;;;;;;8.41;77.23;99465.89;108541;1255;94545;-75
2024/02/20 10:15:40;;;;;;;5.70;3.80;;;;;;;8.46;77.13;99463.83;108632;1255;94325;-77
2024/02/20 10:18:07;;;;;;;6.00;3.70;;;;;;;8.50;77.21;99461.02;108584;1255;109181;-76
2024/02/20 10:20:47;;;;;;;6.90;3.70;;;;;;;8.51;77.00;99463.79;108545;1254;95164;-77
2024/02/20 10:23:15;;;;;;;6.90;3.60;;;;;;;8.53;77.06;99461.73;108522;1255;107403;-76
2024/02/20 10:25:43;;;;;;;7.20;3.70;;;;;;;8.56;77.00;99460.68;108534;1255;94243;-76
2024/02/20 10:28:12;;;;;;;12.30;4.50;;;;;;;8.55;76.91;99455.95;108537;1255;94237;-77
2024/02/20 10:30:40;;;;;;;15.20;5.90;;;;;;;8.56;76.84;99459.77;108564;1255;109950;-76
2024/02/20 10:33:10;;;;;;;14.20;4.90;;;;;;;8.55;76.94;99456.30;108449;1255;95675;-77
2024/02/20 10:35:40;;;;;;;11.50;4.60;;;;;;;8.53;76.73;99452.55;108433;1255;108428;-77
2024/02/20 10:38:11;;;;;;;9.40;4.60;;;;;;;8.49;76.56;99452.05;108569;1255;94320;-77
2024/02/20 10:40:39;;;;;;;13.10;4.80;;;;;;;8.46;76.52;99453.42;108441;1255;94289;-77
2024/02/20 10:43:10;;;;;;;13.80;5.40;;;;;;;8.41;76.45;99448.60;108561;1255;109620;-77
2024/02/20 10:45:39;;;;;;;14.30;5.20;;;;;;;8.34;76.23;99446.53;108411;1255;96037;-76
2024/02/20 10:48:10;;;;;;;8.50;4.70;;;;;;;8.28;76.26;99447.58;108360;1256;107745;-77
2024/02/20 10:50:40;;;;;;;17.70;6.50;;;;;;;8.23;76.36;99449.98;108559;1255;94592;-77
2024/02/20 10:53:09;;;;;;;11.60;4.70;;;;;;;8.17;76.26;99448.17;108632;1255;94283;-76
2024/02/20 10:55:38;;;;;;;13.60;6.10;;;;;;;8.12;76.25;99445.81;108533;1255;109399;-76
2024/02/20 10:58:15;;;;;;;14.90;6.10;;;;;;;8.07;76.45;99446.27;108387;1255;95567;-76
2024/02/20 11:03:48;;;;;;;10.40;5.30;;;;;;;8.09;76.45;99443.17;102792;1292;636061;-76
2024/02/20 11:06:41;;;;;;;24.60;6.30;;;;;;;8.06;76.35;99443.64;105206;1260;94329;-76
2024/02/20 11:09:15;;;;;;;11.10;6.20;;;;;;;8.02;76.40;99448.48;105154;1264;94447;-76
2024/02/20 11:11:45;;;;;;;13.90;9.20;;;;;;;7.96;76.44;99443.32;105213;1265;107233;-76
2024/02/20 11:14:30;;;;;;;10.30;5.80;;;;;;;7.90;76.49;99442.75;105136;1263;95471;-76
2024/02/20 11:17:14;;;;;;;6.70;4.50;;;;;;;7.88;76.53;99443.22;104154;1260;1772888;-76
2024/02/20 11:20:14;;;;;;;7.40;5.10;;;;;;;7.87;76.65;99441.73;104997;1269;94337;-76
2024/02/20 11:22:51;;;;;;;6.80;4.40;;;;;;;7.86;76.66;99439.81;104983;1263;94734;-77
2024/02/20 11:25:20;;;;;;;6.40;3.90;;;;;;;7.84;76.60;99433.91;105266;1257;109178;-76
2024/02/20 11:27:50;;;;;;;7.90;4.20;;;;;;;7.84;76.52;99431.98;105243;1263;94308;-76
2024/02/20 11:30:34;;;;;;;6.40;3.80;;;;;;;7.86;76.74;99427.67;105394;1257;106807;-75
2024/02/20 11:33:15;;;;;;;7.70;4.50;;;;;;;7.87;76.70;99426.56;105064;1260;95266;-75
2024/02/20 11:35:54;;;;;;;7.20;4.00;;;;;;;7.87;76.85;99425.13;105242;1257;95332;-75
2024/02/20 11:38:23;;;;;;;6.80;4.20;;;;;;;7.88;76.85;99422.07;105737;1256;108511;-75
2024/02/20 11:40:51;;;;;;;6.80;4.50;;;;;;;7.92;76.77;99420.29;105527;1254;95175;-76
2024/02/20 11:43:22;;;;;;;8.00;5.20;;;;;;;7.95;76.85;99413.53;105300;1257;107746;-76